createdAt,value
2023-05-20T00:00:03.289Z,13713.9287
2023-05-20T00:01:11.622Z,13714.2861
2023-05-20T00:02:19.466Z,13713.5000
2023-05-20T00:03:27.758Z,13715.3574
2023-05-20T00:04:35.647Z,13716.5713
2023-05-20T00:05:44.007Z,13716.4287
2023-05-20T00:06:51.825Z,13715.0713
2023-05-20T00:07:59.750Z,13717.3574
2023-05-20T00:09:07.811Z,13715.5713
2023-05-20T00:10:15.872Z,13713.7139
2023-05-20T00:11:23.851Z,13709.2861
2023-05-20T00:12:31.861Z,13707.5713
2023-05-20T00:13:39.952Z,13705.2139
2023-05-20T00:14:48.132Z,13704.7139
2023-05-20T00:15:56.356Z,13703.8574
2023-05-20T00:17:04.312Z,13699.6426
2023-05-20T00:18:12.490Z,13705.2861
2023-05-20T00:19:20.448Z,13706.7139
2023-05-20T00:20:28.500Z,13705.0713
2023-05-20T00:21:36.730Z,13708.0000
2023-05-20T00:22:44.611Z,13705.8574
2023-05-20T00:23:52.721Z,13705.7861
2023-05-20T00:25:00.722Z,13705.4287
2023-05-20T00:26:08.698Z,13706.9287
2023-05-20T00:27:16.722Z,13706.4287
2023-05-20T00:28:24.789Z,13706.8574
2023-05-20T00:29:32.941Z,13705.4287
2023-05-20T00:30:41.076Z,13709.5000
2023-05-20T00:31:49.185Z,13709.2861
2023-05-20T00:32:57.274Z,13709.0713
2023-05-20T00:34:05.235Z,13710.4287
2023-05-20T00:35:13.380Z,13709.4287
2023-05-20T00:36:21.357Z,13706.5000
2023-05-20T00:37:29.508Z,13704.4287
2023-05-20T00:38:37.652Z,13709.2139
2023-05-20T00:39:45.581Z,13711.6426
2023-05-20T00:40:53.493Z,13718.0000
2023-05-20T00:42:01.593Z,13721.3574
2023-05-20T00:43:09.649Z,13724.5000
2023-05-20T00:44:17.853Z,13726.9287
2023-05-20T00:45:25.886Z,13730.9287
2023-05-20T00:46:34.146Z,13729.7861
2023-05-20T00:47:41.942Z,13737.5000
2023-05-20T00:48:50.097Z,13736.0000
2023-05-20T00:49:58.188Z,13740.6426
2023-05-20T00:51:06.229Z,13741.1426
2023-05-20T00:52:14.378Z,13742.3574
2023-05-20T00:53:22.361Z,13745.3574
2023-05-20T00:54:30.466Z,13745.0713
2023-05-20T00:55:38.355Z,13746.0000
2023-05-20T00:56:46.406Z,13748.0713
2023-05-20T00:57:54.515Z,13746.8574
2023-05-20T00:59:02.705Z,13750.3574
2023-05-20T01:00:10.926Z,13754.2861
2023-05-20T01:01:18.807Z,13756.2861
2023-05-20T01:02:26.980Z,13759.5713
2023-05-20T01:03:34.996Z,13764.1426
2023-05-20T01:04:43.009Z,13764.0713
2023-05-20T01:05:51.113Z,13768.4287
2023-05-20T01:06:59.120Z,13767.7139
2023-05-20T01:08:07.237Z,13762.7861
2023-05-20T01:09:15.261Z,13761.6426
2023-05-20T01:10:23.203Z,13765.0000
2023-05-20T01:11:31.251Z,13765.4287
2023-05-20T01:12:39.332Z,13769.2139
2023-05-20T01:13:47.651Z,13768.5713
2023-05-20T01:14:55.661Z,13772.7139
2023-05-20T01:16:03.746Z,13773.0000
2023-05-20T01:17:11.791Z,13775.0000
2023-05-20T01:18:19.953Z,13775.4287
2023-05-20T01:19:27.975Z,13777.7861
2023-05-20T01:20:36.193Z,13779.8574
2023-05-20T01:21:44.085Z,13779.9287
2023-05-20T01:22:52.160Z,13782.3574
2023-05-20T01:24:00.163Z,13777.2861
2023-05-20T01:25:08.093Z,13778.6426
2023-05-20T01:26:16.163Z,13778.1426
2023-05-20T01:27:24.228Z,13779.1426
2023-05-20T01:28:32.617Z,13778.1426
2023-05-20T01:29:40.484Z,13778.5713
2023-05-20T01:30:48.571Z,13775.5000
2023-05-20T01:31:56.722Z,13776.2139
2023-05-20T01:33:04.744Z,13776.0000
2023-05-20T01:34:12.805Z,13777.8574
2023-05-20T01:35:20.824Z,13778.0713
2023-05-20T01:36:28.909Z,13778.9287
2023-05-20T01:37:36.938Z,13781.0000
2023-05-20T01:38:45.054Z,13783.8574
2023-05-20T01:39:52.929Z,13784.5713
2023-05-20T01:41:00.975Z,13782.7139
2023-05-20T01:42:09.033Z,13787.1426
2023-05-20T01:43:17.816Z,13785.3574
2023-05-20T01:44:25.523Z,13787.6426
2023-05-20T01:45:33.526Z,13784.0000
2023-05-20T01:46:41.512Z,13788.4287
2023-05-20T01:47:49.630Z,13788.5000
2023-05-20T01:48:57.407Z,13787.7139
2023-05-20T01:50:05.633Z,13790.2861
2023-05-20T01:51:13.880Z,13795.8574
2023-05-20T01:52:21.858Z,13795.5713
2023-05-20T01:53:29.821Z,13799.0000
2023-05-20T01:54:37.874Z,13804.7139
2023-05-20T01:55:46.062Z,13805.7861
2023-05-20T01:56:54.045Z,13808.6426
2023-05-20T01:58:01.944Z,13809.1426
2023-05-20T01:59:09.995Z,13808.4287
2023-05-20T02:00:18.051Z,13814.2139
2023-05-20T02:01:26.497Z,13811.5713
2023-05-20T02:02:34.384Z,13811.2861
2023-05-20T02:03:42.555Z,13812.7139
2023-05-20T02:04:50.437Z,13814.9287
2023-05-20T02:05:58.633Z,13813.5000
2023-05-20T02:07:06.609Z,13813.0713
2023-05-20T02:08:14.749Z,13813.5713
2023-05-20T02:09:22.684Z,13811.3574
2023-05-20T02:10:30.792Z,13810.7861
2023-05-20T02:11:38.920Z,13811.0713
2023-05-20T02:12:46.752Z,13809.5000
2023-05-20T02:13:54.823Z,13812.0000
2023-05-20T02:15:02.898Z,13810.2861
2023-05-20T02:16:11.155Z,13812.2139
2023-05-20T02:17:19.203Z,13814.7139
2023-05-20T02:18:27.270Z,13816.4287
2023-05-20T02:19:35.303Z,13818.1426
2023-05-20T02:20:43.375Z,13821.2861
2023-05-20T02:21:51.425Z,13820.0000
2023-05-20T02:22:59.552Z,13820.0713
2023-05-20T02:24:07.499Z,13818.5000
2023-05-20T02:25:15.834Z,13818.4287
2023-05-20T02:26:23.653Z,13819.1426
2023-05-20T02:27:31.607Z,13820.2139
2023-05-20T02:28:39.691Z,13820.1426
2023-05-20T02:29:47.717Z,13817.7139
2023-05-20T02:30:55.887Z,13817.3574
2023-05-20T02:32:03.971Z,13819.8574
2023-05-20T02:33:12.250Z,13818.5713
2023-05-20T02:34:20.121Z,13815.1426
2023-05-20T02:35:28.152Z,13817.6426
2023-05-20T02:36:36.320Z,13821.5713
2023-05-20T02:37:44.498Z,13819.8574
2023-05-20T02:38:52.359Z,13819.7861
2023-05-20T02:40:00.467Z,13825.2139
2023-05-20T02:41:08.550Z,13828.0713
2023-05-20T02:42:16.472Z,13825.7139
2023-05-20T02:43:24.506Z,13830.7139
2023-05-20T02:44:32.568Z,13834.7861
2023-05-20T02:45:40.925Z,13840.0000
2023-05-20T02:46:48.900Z,13838.5713
2023-05-20T02:47:56.945Z,13841.7139
2023-05-20T02:49:05.018Z,13837.2861
2023-05-20T02:50:12.883Z,13833.2139
2023-05-20T02:51:21.094Z,13832.7861
2023-05-20T02:52:29.292Z,13834.3574
2023-05-20T02:53:37.199Z,13830.5713
2023-05-20T02:54:45.262Z,13829.5713
2023-05-20T02:55:53.352Z,13830.0000
2023-05-20T02:57:01.255Z,13827.5000
2023-05-20T02:58:09.556Z,13824.8574
2023-05-20T02:59:17.429Z,13821.2861
2023-05-20T03:00:25.611Z,13822.3574
2023-05-20T03:01:33.738Z,13822.0000
2023-05-20T03:02:41.939Z,13823.4287
2023-05-20T03:03:49.913Z,13823.5713
2023-05-20T03:04:57.846Z,13823.2861
2023-05-20T03:06:05.943Z,13821.0713
2023-05-20T03:07:14.037Z,13820.8574
2023-05-20T03:08:22.113Z,13821.5713
2023-05-20T03:09:30.103Z,13819.7139
2023-05-20T03:10:38.212Z,13822.7861
2023-05-20T03:11:46.126Z,13818.0000
2023-05-20T03:12:54.266Z,13812.2861
2023-05-20T03:14:02.270Z,13810.5713
2023-05-20T03:15:10.593Z,13810.7861
2023-05-20T03:16:18.731Z,13807.5713
2023-05-20T03:17:26.597Z,13804.2139
2023-05-20T03:18:34.703Z,13798.2861
2023-05-20T03:19:42.982Z,13798.6426
2023-05-20T03:20:50.776Z,13794.3574
2023-05-20T03:21:58.852Z,13788.8574
2023-05-20T03:23:07.005Z,13788.2861
2023-05-20T03:24:15.088Z,13785.7139
2023-05-20T03:25:23.003Z,13785.1426
2023-05-20T03:26:30.992Z,13785.0713
2023-05-20T03:27:39.020Z,13786.2139
2023-05-20T03:28:47.139Z,13785.9287
2023-05-20T03:29:55.273Z,13787.2861
2023-05-20T03:31:03.564Z,13790.0000
2023-05-20T03:32:11.512Z,13786.8574
2023-05-20T03:33:19.543Z,13790.5713
2023-05-20T03:34:27.557Z,13795.2861
2023-05-20T03:35:35.924Z,13798.2139
2023-05-20T03:36:43.706Z,13799.3574
2023-05-20T03:37:51.868Z,13804.7139
2023-05-20T03:38:59.871Z,13810.8574
2023-05-20T03:40:07.900Z,13814.1426
2023-05-20T03:41:15.833Z,13815.5000
2023-05-20T03:42:23.886Z,13822.2861
2023-05-20T03:43:31.991Z,13822.0000
2023-05-20T03:44:40.169Z,13825.1426
2023-05-20T03:45:48.232Z,13826.7861
2023-05-20T03:46:56.473Z,13831.0000
2023-05-20T03:48:04.351Z,13832.2139
2023-05-20T03:49:12.464Z,13833.2861
2023-05-20T03:50:20.500Z,13837.2861
2023-05-20T03:51:28.752Z,13833.4287
2023-05-20T03:52:36.572Z,13830.7139
2023-05-20T03:53:44.899Z,13831.4287
2023-05-20T03:54:52.589Z,13831.2861
2023-05-20T03:56:00.665Z,13832.6426
2023-05-20T03:57:08.723Z,13831.2139
2023-05-20T03:58:16.905Z,13826.5713
2023-05-20T03:59:25.004Z,13823.9287
2023-05-20T04:00:33.037Z,13821.7139
2023-05-20T04:01:41.285Z,13823.3574
2023-05-20T04:02:49.310Z,13820.5000
2023-05-20T04:03:57.485Z,13817.8574
2023-05-20T04:05:05.407Z,13814.2139
2023-05-20T04:06:13.489Z,13813.5713
2023-05-20T04:07:21.402Z,13814.5000
2023-05-20T04:08:29.548Z,13816.2139
2023-05-20T04:09:37.426Z,13818.5000
2023-05-20T04:10:45.511Z,13820.9287
2023-05-20T04:11:53.576Z,13819.0713
2023-05-20T04:13:01.803Z,13819.1426
2023-05-20T04:14:09.819Z,13822.2139
2023-05-20T04:15:17.933Z,13820.7139
2023-05-20T04:16:26.282Z,13820.8574
2023-05-20T04:17:34.175Z,13818.1426
2023-05-20T04:18:42.128Z,13812.8574
2023-05-20T04:19:50.208Z,13810.9287
2023-05-20T04:20:58.204Z,13810.4287
2023-05-20T04:22:06.256Z,13809.4287
2023-05-20T04:23:14.348Z,13810.8574
2023-05-20T04:24:22.249Z,13807.3574
2023-05-20T04:25:30.334Z,13801.9287
2023-05-20T04:26:38.388Z,13798.2139
2023-05-20T04:27:46.631Z,13799.5000
2023-05-20T04:28:54.611Z,13798.7139
2023-05-20T04:30:02.762Z,13795.7861
2023-05-20T04:31:10.865Z,13792.4287
2023-05-20T04:32:18.873Z,13790.6426
2023-05-20T04:33:27.042Z,13791.3574
2023-05-20T04:34:34.982Z,13788.7139
2023-05-20T04:35:43.177Z,13788.0713
2023-05-20T04:36:51.062Z,13781.0713
2023-05-20T04:37:59.109Z,13778.2861
2023-05-20T04:39:07.092Z,13775.0713
2023-05-20T04:40:15.126Z,13767.0000
2023-05-20T04:41:23.164Z,13765.5000
2023-05-20T04:42:31.471Z,13765.9287
2023-05-20T04:43:39.430Z,13767.3574
2023-05-20T04:44:47.525Z,13765.2861
2023-05-20T04:45:55.567Z,13763.0000
2023-05-20T04:47:03.635Z,13761.8574
2023-05-20T04:48:11.739Z,13761.9287
2023-05-20T04:49:19.945Z,13764.2139
2023-05-20T04:50:27.861Z,13759.0713
2023-05-20T04:51:35.920Z,13758.2861
2023-05-20T04:52:43.979Z,13753.6426
2023-05-20T04:53:51.902Z,13755.2139
2023-05-20T04:55:00.028Z,13753.0000
2023-05-20T04:56:08.048Z,13744.7861
2023-05-20T04:57:16.422Z,13735.9287
2023-05-20T04:58:24.445Z,13730.0000
2023-05-20T04:59:32.391Z,13725.5713
2023-05-20T05:00:40.379Z,13723.8574
2023-05-20T05:01:48.618Z,13724.2861
2023-05-20T05:02:56.663Z,13722.8574
2023-05-20T05:04:04.545Z,13723.5000
2023-05-20T05:05:12.989Z,13720.1426
2023-05-20T05:06:20.733Z,13718.3574
2023-05-20T05:07:28.755Z,13720.3574
2023-05-20T05:08:36.702Z,13717.0000
2023-05-20T05:09:44.835Z,13714.4287
2023-05-20T05:10:52.864Z,13710.7861
2023-05-20T05:12:01.044Z,13706.5713
2023-05-20T05:13:09.094Z,13700.9287
2023-05-20T05:14:17.331Z,13697.2861
2023-05-20T05:15:25.279Z,13697.0713
2023-05-20T05:16:33.512Z,13692.2861
2023-05-20T05:17:41.427Z,13689.8574
2023-05-20T05:18:49.458Z,13688.2139
2023-05-20T05:19:57.537Z,13686.2861
2023-05-20T05:21:05.573Z,13683.9287
2023-05-20T05:22:13.739Z,13680.9287
2023-05-20T05:23:21.534Z,13675.8574
2023-05-20T05:24:29.671Z,13677.5713
2023-05-20T05:25:37.767Z,13676.6426
2023-05-20T05:26:45.973Z,13678.2139
2023-05-20T05:27:53.995Z,13671.1426
2023-05-20T05:29:02.072Z,13666.4287
2023-05-20T05:30:10.309Z,13664.6426
2023-05-20T05:31:18.185Z,13664.3574
2023-05-20T05:32:26.476Z,13664.7861
2023-05-20T05:33:34.338Z,13665.5713
2023-05-20T05:34:42.351Z,13668.7861
2023-05-20T05:35:50.691Z,13671.7861
2023-05-20T05:36:58.523Z,13670.0713
2023-05-20T05:38:06.453Z,13670.0000
2023-05-20T05:39:14.516Z,13669.0000
2023-05-20T05:40:22.617Z,13665.8574
2023-05-20T05:41:30.796Z,13659.1426
2023-05-20T05:42:38.819Z,13662.4287
2023-05-20T05:43:46.924Z,13662.2139
2023-05-20T05:44:54.938Z,13664.5713
2023-05-20T05:46:03.236Z,13666.7861
2023-05-20T05:47:11.175Z,13665.3574
2023-05-20T05:48:19.131Z,13667.1426
2023-05-20T05:49:27.408Z,13666.8574
2023-05-20T05:50:35.244Z,13669.1426
2023-05-20T05:51:43.572Z,13672.8574
2023-05-20T05:52:51.208Z,13673.6426
2023-05-20T05:53:59.310Z,13677.4287
2023-05-20T05:55:07.373Z,13678.9287
2023-05-20T05:56:15.616Z,13678.8574
2023-05-20T05:57:23.624Z,13678.3574
2023-05-20T05:58:31.804Z,13681.0713
2023-05-20T05:59:39.737Z,13680.9287
2023-05-20T06:00:47.937Z,13680.5000
2023-05-20T06:01:56.162Z,13680.8574
2023-05-20T06:03:04.102Z,13683.0713
2023-05-20T06:04:12.063Z,13686.1426
2023-05-20T06:05:20.056Z,13681.7861
2023-05-20T06:06:28.183Z,13682.2139
2023-05-20T06:07:36.059Z,13680.5000
2023-05-20T06:08:44.130Z,13683.2139
2023-05-20T06:09:52.202Z,13688.0000
2023-05-20T06:11:00.449Z,13686.2861
2023-05-20T06:12:08.481Z,13689.5000
2023-05-20T06:13:16.832Z,13689.7139
2023-05-20T06:14:24.573Z,13684.8574
2023-05-20T06:15:32.789Z,13680.2139
2023-05-20T06:16:40.779Z,13680.2861
2023-05-20T06:17:48.904Z,13679.0000
2023-05-20T06:18:56.956Z,13679.2139
2023-05-20T06:20:04.864Z,13675.7139
2023-05-20T06:21:13.004Z,13673.5000
2023-05-20T06:22:20.868Z,13672.5713
2023-05-20T06:23:28.951Z,13671.5000
2023-05-20T06:24:36.977Z,13668.6426
2023-05-20T06:25:45.186Z,13669.7139
2023-05-20T06:26:53.222Z,13665.7139
2023-05-20T06:28:01.403Z,13665.9287
2023-05-20T06:29:09.402Z,13664.6426
2023-05-20T06:30:17.521Z,13667.5713
2023-05-20T06:31:25.576Z,13665.9287
2023-05-20T06:32:33.678Z,13661.3574
2023-05-20T06:33:41.722Z,13662.1426
2023-05-20T06:34:49.824Z,13660.7139
2023-05-20T06:35:57.928Z,13657.0000
2023-05-20T06:37:05.712Z,13652.8574
2023-05-20T06:38:13.810Z,13655.8574
2023-05-20T06:39:21.831Z,13654.4287
2023-05-20T06:40:30.039Z,13654.2861
2023-05-20T06:41:38.128Z,13655.2861
2023-05-20T06:42:46.109Z,13655.7861
2023-05-20T06:43:54.285Z,13652.8574
2023-05-20T06:45:02.282Z,13650.5000
2023-05-20T06:46:10.350Z,13653.3574
2023-05-20T06:47:18.402Z,13648.5713
2023-05-20T06:48:26.504Z,13649.0000
2023-05-20T06:49:34.489Z,13647.5000
2023-05-20T06:50:42.639Z,13649.4287
2023-05-20T06:51:50.502Z,13646.7139
2023-05-20T06:52:58.615Z,13647.2861
2023-05-20T06:54:06.687Z,13642.7861
2023-05-20T06:55:14.868Z,13647.2139
2023-05-20T06:56:22.871Z,13648.1426
2023-05-20T06:57:30.949Z,13654.2861
2023-05-20T06:58:39.054Z,13658.3574
2023-05-20T06:59:47.054Z,13658.7861
2023-05-20T07:00:55.109Z,13659.5713
2023-05-20T07:02:03.324Z,13656.8574
2023-05-20T07:03:11.262Z,13659.2139
2023-05-20T07:04:19.372Z,13668.0713
2023-05-20T07:05:27.435Z,13668.1426
2023-05-20T07:06:35.280Z,13674.7139
2023-05-20T07:07:43.367Z,13678.5000
2023-05-20T07:08:51.414Z,13682.1426
2023-05-20T07:09:59.646Z,13680.7139
2023-05-20T07:11:07.532Z,13683.2139
2023-05-20T07:12:15.603Z,13681.7861
2023-05-20T07:13:23.791Z,13686.8574
2023-05-20T07:14:31.879Z,13686.7861
2023-05-20T07:15:39.899Z,13681.6426
2023-05-20T07:16:48.108Z,13681.2861
2023-05-20T07:17:56.095Z,13677.5000
2023-05-20T07:19:04.166Z,13670.5000
2023-05-20T07:20:12.234Z,13669.2139
2023-05-20T07:21:20.081Z,13666.6426
2023-05-20T07:22:28.167Z,13668.1426
2023-05-20T07:23:36.216Z,13661.7139
2023-05-20T07:24:44.411Z,13660.2139
2023-05-20T07:25:52.466Z,13664.0000
2023-05-20T07:27:00.549Z,13661.5713
2023-05-20T07:28:08.574Z,13660.3574
2023-05-20T07:29:16.645Z,13654.5713
2023-05-20T07:30:24.795Z,13653.2139
2023-05-20T07:31:32.798Z,13648.1426
2023-05-20T07:32:41.033Z,13650.5713
2023-05-20T07:33:48.940Z,13647.7861
2023-05-20T07:34:56.987Z,13642.2861
2023-05-20T07:36:04.917Z,13642.1426
2023-05-20T07:37:12.933Z,13641.0000
2023-05-20T07:38:20.989Z,13640.0000
2023-05-20T07:39:29.088Z,13640.0000
2023-05-20T07:40:37.120Z,13645.0713
2023-05-20T07:41:45.411Z,13644.0713
2023-05-20T07:42:53.315Z,13646.5000
2023-05-20T07:44:01.406Z,13649.5713
2023-05-20T07:45:09.457Z,13651.2139
2023-05-20T07:46:19.355Z,13656.3574
2023-05-20T07:47:30.477Z,13654.5996
2023-05-20T07:48:38.537Z,13653.2861
2023-05-20T07:49:46.600Z,13657.8574
2023-05-20T07:50:54.621Z,13660.0000
2023-05-20T07:52:03.165Z,13653.5000
2023-05-20T07:53:10.704Z,13651.8574
2023-05-20T07:54:18.706Z,13654.2139
2023-05-20T07:55:26.935Z,13660.6426
2023-05-20T07:56:34.966Z,13660.7861
2023-05-20T07:57:44.726Z,13655.2139
2023-05-20T07:58:55.937Z,13657.8662
2023-05-20T08:00:04.024Z,13655.7861
2023-05-20T08:01:12.072Z,13660.2139
2023-05-20T08:02:20.172Z,13664.6426
2023-05-20T08:03:28.293Z,13662.5713
2023-05-20T08:04:36.304Z,13658.5713
2023-05-20T08:05:44.170Z,13655.6426
2023-05-20T08:06:52.221Z,13653.7139
2023-05-20T08:08:00.296Z,13645.8574
2023-05-20T08:09:08.677Z,13648.0000
2023-05-20T08:10:16.531Z,13654.2861
2023-05-20T08:11:24.588Z,13652.5000
2023-05-20T08:12:32.667Z,13652.7139
2023-05-20T08:13:40.954Z,13660.0713
2023-05-20T08:14:48.750Z,13653.5000
2023-05-20T08:15:57.020Z,13647.5713
2023-05-20T08:17:04.924Z,13642.7139
2023-05-20T08:18:13.096Z,13639.8574
2023-05-20T08:19:21.057Z,13635.4287
2023-05-20T08:20:28.927Z,13633.2861
2023-05-20T08:21:36.998Z,13630.7861
2023-05-20T08:22:45.058Z,13630.7861
2023-05-20T08:23:53.263Z,13631.0000
2023-05-20T08:25:01.250Z,13626.7861
2023-05-20T08:26:09.216Z,13627.9287
2023-05-20T08:27:17.446Z,13626.9287
2023-05-20T08:28:25.473Z,13625.5713
2023-05-20T08:29:33.778Z,13626.5000
2023-05-20T08:30:41.871Z,13625.4287
2023-05-20T08:31:49.657Z,13628.0000
2023-05-20T08:32:57.717Z,13624.7139
2023-05-20T08:34:05.969Z,13630.7139
2023-05-20T08:35:13.754Z,13632.7861
2023-05-20T08:36:21.816Z,13627.5713
2023-05-20T08:37:29.825Z,13627.5713
2023-05-20T08:38:38.014Z,13632.8574
2023-05-20T08:39:46.135Z,13630.7139
2023-05-20T08:40:54.027Z,13628.4287
2023-05-20T08:42:02.204Z,13628.5713
2023-05-20T08:43:10.274Z,13633.5000
2023-05-20T08:44:18.338Z,13634.0000
2023-05-20T08:45:26.503Z,13634.2861
2023-05-20T08:46:34.483Z,13632.1426
2023-05-20T08:47:42.501Z,13636.4287
2023-05-20T08:48:50.637Z,13630.5713
2023-05-20T08:49:58.485Z,13621.1426
2023-05-20T08:51:06.575Z,13621.1426
2023-05-20T08:52:14.611Z,13619.1426
2023-05-20T08:53:22.760Z,13615.0713
2023-05-20T08:54:30.856Z,13618.4287
2023-05-20T08:55:39.188Z,13617.2861
2023-05-20T08:56:46.975Z,13620.1426
2023-05-20T08:57:54.888Z,13622.7861
2023-05-20T08:59:03.104Z,13622.9287
2023-05-20T09:00:11.054Z,13621.2861
2023-05-20T09:01:19.237Z,13624.5000
2023-05-20T09:02:27.332Z,13625.2139
2023-05-20T09:03:35.336Z,13627.2139
2023-05-20T09:04:43.293Z,13627.7861
2023-05-20T09:05:51.313Z,13631.8574
2023-05-20T09:06:59.333Z,13639.5713
2023-05-20T09:08:07.555Z,13643.7861
2023-05-20T09:09:15.453Z,13643.0000
2023-05-20T09:10:23.751Z,13639.0713
2023-05-20T09:11:31.646Z,13635.3574
2023-05-20T09:12:39.764Z,13630.9287
2023-05-20T09:13:47.851Z,13627.3574
2023-05-20T09:14:55.890Z,13630.6426
2023-05-20T09:16:04.055Z,13635.3574
2023-05-20T09:17:12.209Z,13636.6426
2023-05-20T09:18:20.073Z,13640.5000
2023-05-20T09:19:28.023Z,13639.9287
2023-05-20T09:20:36.071Z,13632.9287
2023-05-20T09:21:44.107Z,13631.2139
2023-05-20T09:22:52.236Z,13633.8574
2023-05-20T09:24:00.339Z,13633.8574
2023-05-20T09:25:08.373Z,13632.1426
2023-05-20T09:26:16.463Z,13636.8574
2023-05-20T09:27:24.474Z,13636.4287
2023-05-20T09:28:32.896Z,13636.5713
2023-05-20T09:29:40.595Z,13637.0713
2023-05-20T09:30:48.718Z,13644.2139
2023-05-20T09:31:56.814Z,13645.2861
2023-05-20T09:33:04.933Z,13644.6426
2023-05-20T09:34:12.856Z,13647.1426
2023-05-20T09:35:20.900Z,13646.0713
2023-05-20T09:36:28.962Z,13644.1426
2023-05-20T09:37:37.162Z,13642.0713
2023-05-20T09:38:45.175Z,13642.1426
2023-05-20T09:39:53.293Z,13637.3574
2023-05-20T09:41:01.290Z,13630.6426
2023-05-20T09:42:09.478Z,13633.5713
2023-05-20T09:43:17.442Z,13633.2139
2023-05-20T09:44:25.454Z,13626.7139
2023-05-20T09:45:33.711Z,13621.8574
2023-05-20T09:46:41.745Z,13613.4287
2023-05-20T09:47:49.703Z,13612.8574
2023-05-20T09:48:57.662Z,13615.3574
2023-05-20T09:50:05.648Z,13616.2861
2023-05-20T09:51:13.771Z,13611.8574
2023-05-20T09:52:21.787Z,13613.2861
2023-05-20T09:53:29.948Z,13619.7861
2023-05-20T09:54:38.084Z,13619.5713
2023-05-20T09:55:46.088Z,13614.7139
2023-05-20T09:56:54.243Z,13609.9287
2023-05-20T09:58:02.239Z,13607.9287
2023-05-20T09:59:10.282Z,13601.0000
2023-05-20T10:00:18.319Z,13596.5000
2023-05-20T10:01:26.527Z,13590.2861
2023-05-20T10:02:34.627Z,13589.9287
2023-05-20T10:03:44.144Z,13583.9287
2023-05-20T10:04:55.395Z,13584.2002
2023-05-20T10:06:03.377Z,13580.7861
2023-05-20T10:07:11.456Z,13576.2139
2023-05-20T10:08:19.656Z,13577.7861
2023-05-20T10:09:27.749Z,13581.1426
2023-05-20T10:10:35.788Z,13578.8574
2023-05-20T10:11:43.815Z,13583.3574
2023-05-20T10:12:51.937Z,13584.2861
2023-05-20T10:13:59.994Z,13591.6426
2023-05-20T10:15:07.983Z,13585.7861
2023-05-20T10:16:16.131Z,13588.5713
2023-05-20T10:17:24.166Z,13588.4287
2023-05-20T10:18:32.233Z,13595.7139
2023-05-20T10:19:40.326Z,13600.5713
2023-05-20T10:20:48.348Z,13604.3574
2023-05-20T10:21:56.275Z,13602.2139
2023-05-20T10:23:04.336Z,13602.0713
2023-05-20T10:24:12.399Z,13599.3574
2023-05-20T10:25:20.579Z,13599.1426
2023-05-20T10:26:28.603Z,13597.5000
2023-05-20T10:27:36.655Z,13601.2139
2023-05-20T10:28:44.770Z,13603.1426
2023-05-20T10:29:52.863Z,13607.4287
2023-05-20T10:31:00.904Z,13608.4287
2023-05-20T10:32:08.984Z,13602.5000
2023-05-20T10:33:17.091Z,13601.3574
2023-05-20T10:34:25.078Z,13607.4287
2023-05-20T10:35:33.276Z,13613.7861
2023-05-20T10:36:42.723Z,13613.6426
2023-05-20T10:37:49.159Z,13613.5713
2023-05-20T10:38:57.260Z,13613.8574
2023-05-20T10:40:05.403Z,13613.2139
2023-05-20T10:41:13.517Z,13614.1426
2023-05-20T10:42:21.526Z,13613.0000
2023-05-20T10:43:29.598Z,13611.5000
2023-05-20T10:44:37.674Z,13611.8574
2023-05-20T10:45:45.769Z,13608.6426
2023-05-20T10:47:13.215Z,13600.5713
2023-05-20T10:48:06.732Z,13594.5996
2023-05-20T10:49:14.765Z,13594.5713
2023-05-20T10:50:22.695Z,13596.3574
2023-05-20T10:51:30.785Z,13593.8574
2023-05-20T10:52:38.815Z,13594.2139
2023-05-20T10:53:47.013Z,13598.2861
2023-05-20T10:54:55.148Z,13602.2861
2023-05-20T10:56:03.138Z,13599.0000
2023-05-20T10:57:11.368Z,13606.1426
2023-05-20T10:58:19.265Z,13604.5000
2023-05-20T10:59:27.434Z,13606.2861
2023-05-20T11:00:35.657Z,13614.7861
2023-05-20T11:01:43.666Z,13610.0713
2023-05-20T11:02:51.524Z,13609.5713
2023-05-20T11:03:59.836Z,13607.5713
2023-05-20T11:05:07.534Z,13598.7139
2023-05-20T11:06:17.622Z,13602.7139
2023-05-20T11:07:28.652Z,13602.7334
2023-05-20T11:08:36.632Z,13595.7139
2023-05-20T11:09:44.745Z,13592.1426
2023-05-20T11:10:52.911Z,13593.6426
2023-05-20T11:12:00.843Z,13590.7861
2023-05-20T11:13:08.968Z,13591.3574
2023-05-20T11:14:17.112Z,13590.9287
2023-05-20T11:15:25.091Z,13593.2861
2023-05-20T11:16:33.251Z,13592.0713
2023-05-20T11:17:41.426Z,13592.5000
2023-05-20T11:18:49.155Z,13593.1426
2023-05-20T11:19:57.244Z,13593.0000
2023-05-20T11:21:05.314Z,13592.7861
2023-05-20T11:22:13.403Z,13597.2139
2023-05-20T11:23:21.505Z,13598.9287
2023-05-20T11:24:29.595Z,13593.8574
2023-05-20T11:25:37.665Z,13586.9287
2023-05-20T11:26:45.644Z,13587.7861
2023-05-20T11:27:53.801Z,13585.2139
2023-05-20T11:29:01.875Z,13577.0713
2023-05-20T11:30:09.838Z,13579.5713
2023-05-20T11:31:17.973Z,13578.7139
2023-05-20T11:32:26.066Z,13574.7861
2023-05-20T11:33:33.905Z,13574.6426
2023-05-20T11:34:41.983Z,13574.6426
2023-05-20T11:35:50.009Z,13568.4287
2023-05-20T11:36:58.241Z,13567.6426
2023-05-20T11:38:06.291Z,13564.4287
2023-05-20T11:39:14.485Z,13556.9287
2023-05-20T11:40:22.383Z,13561.2861
2023-05-20T11:41:30.442Z,13561.2861
2023-05-20T11:42:38.544Z,13560.7139
2023-05-20T11:43:46.551Z,13561.0000
2023-05-20T11:44:54.606Z,13559.7139
2023-05-20T11:46:02.802Z,13562.5713
2023-05-20T11:47:10.839Z,13556.5000
2023-05-20T11:48:18.697Z,13551.5000
2023-05-20T11:49:26.758Z,13549.7861
2023-05-20T11:50:35.079Z,13545.6426
2023-05-20T11:51:43.414Z,13543.2139
2023-05-20T11:52:51.091Z,13533.9287
2023-05-20T11:53:59.145Z,13534.6426
2023-05-20T11:55:07.214Z,13535.5000
2023-05-20T11:56:15.292Z,13532.6426
2023-05-20T11:57:23.319Z,13523.6426
2023-05-20T11:58:31.442Z,13521.5000
2023-05-20T11:59:39.695Z,13522.1426
2023-05-20T12:00:51.640Z,13526.0000
2023-05-20T12:02:00.322Z,13530.4668
2023-05-20T12:03:08.469Z,13537.1426
2023-05-20T12:04:16.517Z,13538.9287
2023-05-20T12:05:24.632Z,13535.1426
2023-05-20T12:06:32.752Z,13538.7139
2023-05-20T12:07:40.752Z,13543.3574
2023-05-20T12:08:48.796Z,13551.2861
2023-05-20T12:09:56.834Z,13547.7861
2023-05-20T12:11:04.910Z,13553.4287
2023-05-20T12:12:13.074Z,13553.7861
2023-05-20T12:13:21.130Z,13553.2139
2023-05-20T12:14:29.178Z,13554.7861
2023-05-20T12:15:37.228Z,13562.1426
2023-05-20T12:16:45.168Z,13560.2861
2023-05-20T12:17:53.253Z,13565.5713
2023-05-20T12:19:01.265Z,13562.0000
2023-05-20T12:20:09.396Z,13560.5000
2023-05-20T12:21:17.530Z,13559.7861
2023-05-20T12:22:25.604Z,13551.2861
2023-05-20T12:23:33.613Z,13542.5713
2023-05-20T12:24:41.813Z,13545.4287
2023-05-20T12:25:49.699Z,13544.3574
2023-05-20T12:26:57.931Z,13547.7861
2023-05-20T12:28:05.822Z,13548.0000
2023-05-20T12:29:13.976Z,13547.2139
2023-05-20T12:30:22.001Z,13540.5713
2023-05-20T12:31:31.871Z,13526.1426
2023-05-20T12:32:42.896Z,13520.1338
2023-05-20T12:33:50.919Z,13521.5713
2023-05-20T12:34:58.942Z,13515.7861